sensor_id;sensor_type;location;lat;lon;timestamp;pressure;altitude;pressure_sealevel;temperature;humidity
35291;BME280;21411;50.024;19.220;2023-04-03T00:00:33;99305.91;;;2.02;100.00
35291;BME280;21411;50.024;19.220;2023-04-03T00:03:17;99305.36;;;2.03;100.00
35291;BME280;21411;50.024;19.220;2023-04-03T00:05:45;99306.91;;;2.04;100.00
35291;BME280;21411;50.024;19.220;2023-04-03T00:08:11;99309.02;;;2.03;100.00
35291;BME280;21411;50.024;19.220;2023-04-03T00:10:39;99306.23;;;2.03;100.00
35291;BME280;21411;50.024;19.220;2023-04-03T00:13:06;99307.62;;;2.04;100.00
35291;BME280;21411;50.024;19.220;2023-04-03T00:15:33;99309.70;;;2.04;100.00
35291;BME280;21411;50.024;19.220;2023-04-03T00:18:00;99310.38;;;2.05;100.00
35291;BME280;21411;50.024;19.220;2023-04-03T00:20:27;99311.07;;;2.06;100.00
35291;BME280;21411;50.024;19.220;2023-04-03T00:22:54;99308.20;;;2.08;100.00
35291;BME280;21411;50.024;19.220;2023-04-03T00:25:21;99309.05;;;2.09;100.00
35291;BME280;21411;50.024;19.220;2023-04-03T00:27:48;99310.07;;;2.09;100.00
35291;BME280;21411;50.024;19.220;2023-04-03T00:30:16;99307.07;;;2.10;100.00
35291;BME280;21411;50.024;19.220;2023-04-03T00:32:44;99305.70;;;2.10;100.00
35291;BME280;21411;50.024;19.220;2023-04-03T00:35:10;99302.02;;;2.10;100.00
35291;BME280;21411;50.024;19.220;2023-04-03T00:37:37;99308.67;;;2.10;100.00
35291;BME280;21411;50.024;19.220;2023-04-03T00:40:04;99312.52;;;2.10;100.00
35291;BME280;21411;50.024;19.220;2023-04-03T00:42:32;99310.05;;;2.10;100.00
35291;BME280;21411;50.024;19.220;2023-04-03T00:47:27;99315.87;;;2.09;100.00
35291;BME280;21411;50.024;19.220;2023-04-03T00:49:54;99314.46;;;2.09;100.00
35291;BME280;21411;50.024;19.220;2023-04-03T00:52:24;99315.87;;;2.09;100.00
35291;BME280;21411;50.024;19.220;2023-04-03T00:54:54;99316.39;;;2.09;100.00
35291;BME280;21411;50.024;19.220;2023-04-03T00:57:23;99322.19;;;2.09;100.00
35291;BME280;21411;50.024;19.220;2023-04-03T00:59:55;99319.95;;;2.08;100.00
35291;BME280;21411;50.024;19.220;2023-04-03T01:02:23;99320.98;;;2.08;100.00
35291;BME280;21411;50.024;19.220;2023-04-03T01:04:50;99321.70;;;2.07;100.00
35291;BME280;21411;50.024;19.220;2023-04-03T01:07:24;99324.02;;;2.06;100.00
35291;BME280;21411;50.024;19.220;2023-04-03T01:09:57;99327.02;;;2.06;100.00
35291;BME280;21411;50.024;19.220;2023-04-03T01:12:30;99328.27;;;2.05;100.00
35291;BME280;21411;50.024;19.220;2023-04-03T01:17:51;99334.09;;;2.03;100.00
35291;BME280;21411;50.024;19.220;2023-04-03T01:25:48;99340.31;;;1.99;100.00
35291;BME280;21411;50.024;19.220;2023-04-03T01:28:19;99342.25;;;1.99;100.00
35291;BME280;21411;50.024;19.220;2023-04-03T01:30:53;99344.89;;;1.98;100.00
35291;BME280;21411;50.024;19.220;2023-04-03T01:33:23;99341.77;;;1.98;100.00
35291;BME280;21411;50.024;19.220;2023-04-03T01:35:49;99341.42;;;1.97;100.00
35291;BME280;21411;50.024;19.220;2023-04-03T01:38:16;99347.23;;;1.96;100.00
35291;BME280;21411;50.024;19.220;2023-04-03T01:40:43;99345.48;;;1.96;100.00
35291;BME280;21411;50.024;19.220;2023-04-03T01:43:09;99349.02;;;1.95;100.00
35291;BME280;21411;50.024;19.220;2023-04-03T01:45:36;99350.42;;;1.95;100.00
35291;BME280;21411;50.024;19.220;2023-04-03T01:48:03;99349.38;;;1.95;100.00
35291;BME280;21411;50.024;19.220;2023-04-03T01:50:30;99352.02;;;1.95;100.00
35291;BME280;21411;50.024;19.220;2023-04-03T01:52:57;99350.63;;;1.94;100.00
35291;BME280;21411;50.024;19.220;2023-04-03T01:55:23;99351.17;;;1.93;100.00
35291;BME280;21411;50.024;19.220;2023-04-03T01:57:50;99352.75;;;1.93;100.00
35291;BME280;21411;50.024;19.220;2023-04-03T02:00:41;99350.84;;;1.93;100.00
35291;BME280;21411;50.024;19.220;2023-04-03T02:03:08;99354.13;;;1.95;100.00
35291;BME280;21411;50.024;19.220;2023-04-03T02:05:35;99353.27;;;1.94;100.00
35291;BME280;21411;50.024;19.220;2023-04-03T02:08:02;99352.23;;;1.93;100.00
35291;BME280;21411;50.024;19.220;2023-04-03T02:10:29;99356.99;;;1.92;100.00
35291;BME280;21411;50.024;19.220;2023-04-03T02:12:55;99360.14;;;1.91;100.00
35291;BME280;21411;50.024;19.220;2023-04-03T02:15:22;99354.38;;;1.91;100.00
35291;BME280;21411;50.024;19.220;2023-04-03T02:17:49;99359.48;;;1.90;100.00
35291;BME280;21411;50.024;19.220;2023-04-03T02:20:15;99361.23;;;1.90;100.00
35291;BME280;21411;50.024;19.220;2023-04-03T02:22:42;99367.73;;;1.89;100.00
35291;BME280;21411;50.024;19.220;2023-04-03T02:25:09;99366.35;;;1.89;100.00
35291;BME280;21411;50.024;19.220;2023-04-03T02:27:36;99366.89;;;1.88;100.00
35291;BME280;21411;50.024;19.220;2023-04-03T02:30:04;99369.36;;;1.88;100.00
35291;BME280;21411;50.024;19.220;2023-04-03T02:32:31;99367.46;;;1.87;100.00
35291;BME280;21411;50.024;19.220;2023-04-03T02:34:58;99364.34;;;1.85;100.00
35291;BME280;21411;50.024;19.220;2023-04-03T02:37:24;99363.66;;;1.84;100.00
35291;BME280;21411;50.024;19.220;2023-04-03T02:39:51;99365.31;;;1.82;100.00
35291;BME280;21411;50.024;19.220;2023-04-03T02:42:18;99365.90;;;1.79;100.00
35291;BME280;21411;50.024;19.220;2023-04-03T02:44:44;99366.13;;;1.77;100.00
35291;BME280;21411;50.024;19.220;2023-04-03T02:47:11;99363.92;;;1.74;100.00
35291;BME280;21411;50.024;19.220;2023-04-03T02:49:38;99365.53;;;1.73;100.00
35291;BME280;21411;50.024;19.220;2023-04-03T02:52:04;99365.38;;;1.72;100.00
35291;BME280;21411;50.024;19.220;2023-04-03T02:54:31;99366.98;;;1.71;100.00
35291;BME280;21411;50.024;19.220;2023-04-03T02:56:57;99371.00;;;1.71;100.00
35291;BME280;21411;50.024;19.220;2023-04-03T02:59:24;99374.35;;;1.70;100.00
35291;BME280;21411;50.024;19.220;2023-04-03T03:01:51;99373.66;;;1.70;100.00
35291;BME280;21411;50.024;19.220;2023-04-03T03:04:18;99377.02;;;1.69;100.00
35291;BME280;21411;50.024;19.220;2023-04-03T03:06:44;99377.36;;;1.68;100.00
35291;BME280;21411;50.024;19.220;2023-04-03T03:09:12;99378.23;;;1.69;100.00
35291;BME280;21411;50.024;19.220;2023-04-03T03:11:39;99379.80;;;1.70;100.00
35291;BME280;21411;50.024;19.220;2023-04-03T03:14:06;99382.94;;;1.70;100.00
35291;BME280;21411;50.024;19.220;2023-04-03T03:16:33;99380.49;;;1.70;100.00
35291;BME280;21411;50.024;19.220;2023-04-03T03:19:00;99386.46;;;1.70;100.00
35291;BME280;21411;50.024;19.220;2023-04-03T03:21:26;99386.14;;;1.68;100.00
35291;BME280;21411;50.024;19.220;2023-04-03T03:23:53;99386.17;;;1.67;100.00
35291;BME280;21411;50.024;19.220;2023-04-03T03:26:20;99384.95;;;1.66;100.00
35291;BME280;21411;50.024;19.220;2023-04-03T03:28:47;99389.52;;;1.67;100.00
35291;BME280;21411;50.024;19.220;2023-04-03T03:31:13;99390.21;;;1.66;100.00
35291;BME280;21411;50.024;19.220;2023-04-03T03:33:41;99396.16;;;1.66;100.00
35291;BME280;21411;50.024;19.220;2023-04-03T03:36:08;99393.75;;;1.65;100.00
35291;BME280;21411;50.024;19.220;2023-04-03T03:38:34;99394.13;;;1.64;100.00
35291;BME280;21411;50.024;19.220;2023-04-03T03:41:01;99395.56;;;1.63;100.00
35291;BME280;21411;50.024;19.220;2023-04-03T03:43:28;99394.04;;;1.60;100.00
35291;BME280;21411;50.024;19.220;2023-04-03T03:45:54;99395.30;;;1.59;100.00
35291;BME280;21411;50.024;19.220;2023-04-03T03:48:21;99395.48;;;1.59;100.00
35291;BME280;21411;50.024;19.220;2023-04-03T03:50:49;99396.90;;;1.58;100.00
35291;BME280;21411;50.024;19.220;2023-04-03T03:53:16;99400.58;;;1.57;100.00
35291;BME280;21411;50.024;19.220;2023-04-03T03:55:42;99402.23;;;1.55;100.00
35291;BME280;21411;50.024;19.220;2023-04-03T03:58:09;99406.20;;;1.49;100.00
35291;BME280;21411;50.024;19.220;2023-04-03T04:00:36;99412.29;;;1.44;100.00
35291;BME280;21411;50.024;19.220;2023-04-03T04:03:03;99416.08;;;1.39;100.00
35291;BME280;21411;50.024;19.220;2023-04-03T04:05:30;99416.23;;;1.32;100.00
35291;BME280;21411;50.024;19.220;2023-04-03T04:07:56;99415.33;;;1.26;100.00
35291;BME280;21411;50.024;19.220;2023-04-03T04:10:23;99415.48;;;1.19;100.00
35291;BME280;21411;50.024;19.220;2023-04-03T04:12:50;99417.93;;;1.11;100.00
35291;BME280;21411;50.024;19.220;2023-04-03T04:15:18;99421.03;;;1.05;100.00
35291;BME280;21411;50.024;19.220;2023-04-03T04:17:45;99420.08;;;1.00;100.00
35291;BME280;21411;50.024;19.220;2023-04-03T04:20:11;99421.37;;;0.97;100.00
35291;BME280;21411;50.024;19.220;2023-04-03T04:22:38;99426.13;;;0.95;100.00
35291;BME280;21411;50.024;19.220;2023-04-03T04:25:05;99425.49;;;0.92;100.00
35291;BME280;21411;50.024;19.220;2023-04-03T04:27:32;99428.73;;;0.88;100.00
35291;BME280;21411;50.024;19.220;2023-04-03T04:29:58;99427.76;;;0.84;100.00
35291;BME280;21411;50.024;19.220;2023-04-03T04:32:25;99431.14;;;0.82;100.00
35291;BME280;21411;50.024;19.220;2023-04-03T04:34:51;99438.21;;;0.78;100.00
35291;BME280;21411;50.024;19.220;2023-04-03T04:37:18;99435.83;;;0.75;100.00
35291;BME280;21411;50.024;19.220;2023-04-03T04:39:44;99434.88;;;0.70;100.00
35291;BME280;21411;50.024;19.220;2023-04-03T04:42:11;99439.32;;;0.66;100.00
35291;BME280;21411;50.024;19.220;2023-04-03T04:44:39;99444.61;;;0.64;100.00
35291;BME280;21411;50.024;19.220;2023-04-03T04:47:06;99443.91;;;0.64;100.00
35291;BME280;21411;50.024;19.220;2023-04-03T04:49:33;99442.31;;;0.65;100.00
35291;BME280;21411;50.024;19.220;2023-04-03T04:51:59;99446.16;;;0.65;100.00
35291;BME280;21411;50.024;19.220;2023-04-03T04:54:26;99450.16;;;0.65;100.00
35291;BME280;21411;50.024;19.220;2023-04-03T04:56:53;99449.64;;;0.66;100.00
35291;BME280;21411;50.024;19.220;2023-04-03T04:59:19;99451.18;;;0.67;100.00
35291;BME280;21411;50.024;19.220;2023-04-03T05:01:46;99453.75;;;0.70;100.00
35291;BME280;21411;50.024;19.220;2023-04-03T05:04:12;99461.60;;;0.71;100.00
35291;BME280;21411;50.024;19.220;2023-04-03T05:06:39;99461.93;;;0.72;100.00
35291;BME280;21411;50.024;19.220;2023-04-03T05:09:06;99465.90;;;0.75;100.00
35291;BME280;21411;50.024;19.220;2023-04-03T05:11:33;99468.18;;;0.75;100.00
35291;BME280;21411;50.024;19.220;2023-04-03T05:14:00;99468.54;;;0.74;100.00
35291;BME280;21411;50.024;19.220;2023-04-03T05:16:26;99472.73;;;0.74;100.00
35291;BME280;21411;50.024;19.220;2023-04-03T05:18:53;99474.17;;;0.72;100.00
35291;BME280;21411;50.024;19.220;2023-04-03T05:21:20;99475.77;;;0.71;100.00
35291;BME280;21411;50.024;19.220;2023-04-03T05:23:49;99478.20;;;0.72;100.00
35291;BME280;21411;50.024;19.220;2023-04-03T05:26:16;99478.86;;;0.74;100.00
35291;BME280;21411;50.024;19.220;2023-04-03T05:28:42;99484.84;;;0.72;100.00
35291;BME280;21411;50.024;19.220;2023-04-03T05:31:09;99485.64;;;0.67;100.00
35291;BME280;21411;50.024;19.220;2023-04-03T05:33:36;99486.45;;;0.61;100.00
35291;BME280;21411;50.024;19.220;2023-04-03T05:36:05;99494.41;;;0.57;100.00
35291;BME280;21411;50.024;19.220;2023-04-03T05:38:32;99495.65;;;0.55;100.00
35291;BME280;21411;50.024;19.220;2023-04-03T05:40:59;99496.05;;;0.53;100.00
35291;BME280;21411;50.024;19.220;2023-04-03T05:43:26;99499.35;;;0.53;100.00
35291;BME280;21411;50.024;19.220;2023-04-03T05:45:52;99505.30;;;0.53;100.00
35291;BME280;21411;50.024;19.220;2023-04-03T05:48:19;99501.09;;;0.54;100.00
35291;BME280;21411;50.024;19.220;2023-04-03T05:50:46;99503.11;;;0.58;100.00
35291;BME280;21411;50.024;19.220;2023-04-03T05:53:21;99507.27;;;0.60;100.00
35291;BME280;21411;50.024;19.220;2023-04-03T05:55:47;99507.62;;;0.60;100.00
35291;BME280;21411;50.024;19.220;2023-04-03T05:58:14;99509.34;;;0.61;100.00
35291;BME280;21411;50.024;19.220;2023-04-03T06:00:41;99514.27;;;0.60;100.00
35291;BME280;21411;50.024;19.220;2023-04-03T06:03:07;99516.02;;;0.59;100.00
35291;BME280;21411;50.024;19.220;2023-04-03T06:05:34;99518.27;;;0.61;100.00
35291;BME280;21411;50.024;19.220;2023-04-03T06:08:01;99518.64;;;0.60;100.00
35291;BME280;21411;50.024;19.220;2023-04-03T06:10:28;99528.54;;;0.54;100.00
35291;BME280;21411;50.024;19.220;2023-04-03T06:12:56;99529.40;;;0.55;100.00
35291;BME280;21411;50.024;19.220;2023-04-03T06:15:23;99523.23;;;0.56;100.00
35291;BME280;21411;50.024;19.220;2023-04-03T06:17:51;99530.55;;;0.59;100.00
35291;BME280;21411;50.024;19.220;2023-04-03T06:20:17;99532.02;;;0.64;100.00
35291;BME280;21411;50.024;19.220;2023-04-03T06:22:44;99534.55;;;0.70;100.00
35291;BME280;21411;50.024;19.220;2023-04-03T06:25:11;99537.58;;;0.77;100.00
35291;BME280;21411;50.024;19.220;2023-04-03T06:27:38;99536.71;;;0.85;100.00
35291;BME280;21411;50.024;19.220;2023-04-03T06:30:06;99543.80;;;0.99;100.00
35291;BME280;21411;50.024;19.220;2023-04-03T06:32:33;99544.09;;;1.11;100.00
35291;BME280;21411;50.024;19.220;2023-04-03T06:34:59;99541.94;;;1.22;100.00
35291;BME280;21411;50.024;19.220;2023-04-03T06:37:27;99543.23;;;1.37;100.00
35291;BME280;21411;50.024;19.220;2023-04-03T06:39:55;99544.63;;;1.53;100.00
35291;BME280;21411;50.024;19.220;2023-04-03T06:42:22;99546.70;;;1.70;100.00
35291;BME280;21411;50.024;19.220;2023-04-03T06:44:49;99542.77;;;1.82;100.00
35291;BME280;21411;50.024;19.220;2023-04-03T06:47:16;99546.66;;;1.88;100.00
35291;BME280;21411;50.024;19.220;2023-04-03T06:49:44;99549.20;;;1.92;100.00
35291;BME280;21411;50.024;19.220;2023-04-03T06:52:11;99553.67;;;1.95;100.00
35291;BME280;21411;50.024;19.220;2023-04-03T06:54:39;99554.38;;;1.95;100.00
35291;BME280;21411;50.024;19.220;2023-04-03T06:57:06;99559.35;;;1.92;100.00
35291;BME280;21411;50.024;19.220;2023-04-03T06:59:34;99564.61;;;1.93;100.00
35291;BME280;21411;50.024;19.220;2023-04-03T07:02:00;99569.98;;;1.87;100.00
35291;BME280;21411;50.024;19.220;2023-04-03T07:04:27;99569.55;;;1.83;100.00
35291;BME280;21411;50.024;19.220;2023-04-03T07:06:54;99570.44;;;1.82;100.00
35291;BME280;21411;50.024;19.220;2023-04-03T07:09:20;99577.27;;;1.90;100.00
35291;BME280;21411;50.024;19.220;2023-04-03T07:11:48;99576.77;;;1.97;100.00
35291;BME280;21411;50.024;19.220;2023-04-03T07:14:14;99583.30;;;2.03;100.00
35291;BME280;21411;50.024;19.220;2023-04-03T07:16:41;99584.56;;;2.08;100.00
35291;BME280;21411;50.024;19.220;2023-04-03T07:19:08;99586.34;;;2.15;100.00
35291;BME280;21411;50.024;19.220;2023-04-03T07:21:35;99594.46;;;2.21;100.00
35291;BME280;21411;50.024;19.220;2023-04-03T07:24:02;99597.13;;;2.19;100.00
35291;BME280;21411;50.024;19.220;2023-04-03T07:26:29;99601.05;;;2.16;100.00
35291;BME280;21411;50.024;19.220;2023-04-03T07:28:55;99600.98;;;2.11;100.00
35291;BME280;21411;50.024;19.220;2023-04-03T07:31:22;99604.58;;;2.15;100.00
35291;BME280;21411;50.024;19.220;2023-04-03T07:33:49;99607.33;;;2.25;100.00
35291;BME280;21411;50.024;19.220;2023-04-03T07:36:18;99611.67;;;2.26;100.00
35291;BME280;21411;50.024;19.220;2023-04-03T07:38:45;99608.63;;;2.23;100.00
35291;BME280;21411;50.024;19.220;2023-04-03T07:41:14;99614.00;;;2.17;100.00
35291;BME280;21411;50.024;19.220;2023-04-03T07:43:41;99611.64;;;2.13;100.00
35291;BME280;21411;50.024;19.220;2023-04-03T07:46:08;99605.17;;;2.12;100.00
35291;BME280;21411;50.024;19.220;2023-04-03T07:48:35;99602.64;;;2.15;100.00
35291;BME280;21411;50.024;19.220;2023-04-03T07:51:03;99604.64;;;2.20;100.00
35291;BME280;21411;50.024;19.220;2023-04-03T07:53:30;99611.75;;;2.24;100.00
35291;BME280;21411;50.024;19.220;2023-04-03T07:55:58;99621.98;;;2.20;100.00
35291;BME280;21411;50.024;19.220;2023-04-03T07:58:25;99619.17;;;2.20;100.00
35291;BME280;21411;50.024;19.220;2023-04-03T08:00:52;99617.84;;;2.26;100.00
35291;BME280;21411;50.024;19.220;2023-04-03T08:03:19;99621.55;;;2.31;100.00
35291;BME280;21411;50.024;19.220;2023-04-03T08:05:47;99616.45;;;2.40;100.00
35291;BME280;21411;50.024;19.220;2023-04-03T08:08:20;99617.50;;;2.54;100.00
35291;BME280;21411;50.024;19.220;2023-04-03T08:10:52;99615.90;;;2.69;100.00
35291;BME280;21411;50.024;19.220;2023-04-03T08:13:20;99611.11;;;2.86;100.00
35291;BME280;21411;50.024;19.220;2023-04-03T08:15:47;99611.39;;;3.02;100.00
35291;BME280;21411;50.024;19.220;2023-04-03T08:18:14;99610.29;;;3.04;100.00
35291;BME280;21411;50.024;19.220;2023-04-03T08:20:41;99606.29;;;3.09;100.00
35291;BME280;21411;50.024;19.220;2023-04-03T08:23:09;99611.61;;;3.26;100.00
35291;BME280;21411;50.024;19.220;2023-04-03T08:25:40;99614.82;;;3.44;100.00
35291;BME280;21411;50.024;19.220;2023-04-03T08:28:08;99611.23;;;3.65;100.00
35291;BME280;21411;50.024;19.220;2023-04-03T08:30:35;99612.98;;;3.95;100.00
35291;BME280;21411;50.024;19.220;2023-04-03T08:33:02;99607.33;;;4.19;100.00
35291;BME280;21411;50.024;19.220;2023-04-03T08:35:29;99606.42;;;4.32;100.00
35291;BME280;21411;50.024;19.220;2023-04-03T08:37:55;99608.70;;;4.37;100.00
35291;BME280;21411;50.024;19.220;2023-04-03T08:40:23;99609.10;;;4.35;100.00
35291;BME280;21411;50.024;19.220;2023-04-03T08:43:00;99606.89;;;4.33;100.00
35291;BME280;21411;50.024;19.220;2023-04-03T08:46:08;99610.34;;;4.30;100.00
35291;BME280;21411;50.024;19.220;2023-04-03T08:48:41;99613.16;;;4.41;100.00
35291;BME280;21411;50.024;19.220;2023-04-03T08:51:10;99610.08;;;4.50;100.00
35291;BME280;21411;50.024;19.220;2023-04-03T08:54:05;99609.82;;;4.41;100.00
35291;BME280;21411;50.024;19.220;2023-04-03T08:56:34;99616.48;;;4.30;100.00
35291;BME280;21411;50.024;19.220;2023-04-03T08:59:10;99619.71;;;4.28;100.00
35291;BME280;21411;50.024;19.220;2023-04-03T09:01:40;99622.10;;;4.30;100.00
35291;BME280;21411;50.024;19.220;2023-04-03T09:04:16;99618.98;;;4.40;100.00
35291;BME280;21411;50.024;19.220;2023-04-03T09:06:45;99617.98;;;4.44;100.00
35291;BME280;21411;50.024;19.220;2023-04-03T09:09:31;99614.41;;;4.51;100.00
35291;BME280;21411;50.024;19.220;2023-04-03T09:12:27;99611.64;;;4.55;100.00
35291;BME280;21411;50.024;19.220;2023-04-03T09:18:02;99609.81;;;4.41;100.00
35291;BME280;21411;50.024;19.220;2023-04-03T09:23:01;99619.96;;;4.37;100.00
35291;BME280;21411;50.024;19.220;2023-04-03T09:25:35;99626.63;;;4.44;100.00
35291;BME280;21411;50.024;19.220;2023-04-03T09:28:04;99626.80;;;4.43;100.00
35291;BME280;21411;50.024;19.220;2023-04-03T09:30:36;99631.11;;;4.41;100.00
35291;BME280;21411;50.024;19.220;2023-04-03T09:33:04;99634.27;;;4.35;100.00
35291;BME280;21411;50.024;19.220;2023-04-03T09:35:34;99631.02;;;4.37;100.00
35291;BME280;21411;50.024;19.220;2023-04-03T09:38:16;99627.62;;;4.51;100.00
35291;BME280;21411;50.024;19.220;2023-04-03T09:40:46;99629.70;;;4.63;100.00
35291;BME280;21411;50.024;19.220;2023-04-03T09:43:30;99634.88;;;4.66;100.00
35291;BME280;21411;50.024;19.220;2023-04-03T09:46:28;99638.73;;;4.67;100.00
35291;BME280;21411;50.024;19.220;2023-04-03T09:48:58;99643.37;;;4.53;100.00
35291;BME280;21411;50.024;19.220;2023-04-03T09:51:27;99645.49;;;4.47;100.00
35291;BME280;21411;50.024;19.220;2023-04-03T09:57:35;99648.23;;;4.45;100.00
35291;BME280;21411;50.024;19.220;2023-04-03T10:00:27;99650.72;;;4.65;100.00
35291;BME280;21411;50.024;19.220;2023-04-03T10:02:56;99643.77;;;5.06;99.98
35291;BME280;21411;50.024;19.220;2023-04-03T10:05:39;99644.98;;;5.41;98.90
35291;BME280;21411;50.024;19.220;2023-04-03T10:10:40;99644.70;;;5.49;87.20
35291;BME280;21411;50.024;19.220;2023-04-03T10:13:12;99645.20;;;5.70;84.45
35291;BME280;21411;50.024;19.220;2023-04-03T10:15:45;99635.60;;;5.91;82.97
35291;BME280;21411;50.024;19.220;2023-04-03T10:18:52;99637.13;;;6.03;78.64
35291;BME280;21411;50.024;19.220;2023-04-03T10:23:54;99641.92;;;5.43;77.05
35291;BME280;21411;50.024;19.220;2023-04-03T10:26:41;99651.21;;;5.20;74.17
35291;BME280;21411;50.024;19.220;2023-04-03T10:29:40;99655.94;;;5.10;72.91
35291;BME280;21411;50.024;19.220;2023-04-03T10:34:45;99643.20;;;5.67;69.89
35291;BME280;21411;50.024;19.220;2023-04-03T10:37:21;99641.24;;;5.82;69.47
35291;BME280;21411;50.024;19.220;2023-04-03T10:42:44;99641.91;;;6.12;65.11
35291;BME280;21411;50.024;19.220;2023-04-03T10:45:30;99648.36;;;5.70;61.89
35291;BME280;21411;50.024;19.220;2023-04-03T10:56:11;99626.61;;;6.42;65.66
35291;BME280;21411;50.024;19.220;2023-04-03T10:58:45;99627.16;;;6.72;65.31
35291;BME280;21411;50.024;19.220;2023-04-03T11:01:19;99630.02;;;6.84;62.57
35291;BME280;21411;50.024;19.220;2023-04-03T11:03:50;99629.60;;;6.60;60.52
35291;BME280;21411;50.024;19.220;2023-04-03T11:06:21;99633.75;;;6.27;58.90
35291;BME280;21411;50.024;19.220;2023-04-03T11:08:57;99636.45;;;6.07;60.03
35291;BME280;21411;50.024;19.220;2023-04-03T11:11:30;99641.14;;;5.89;60.52
35291;BME280;21411;50.024;19.220;2023-04-03T11:16:39;99634.52;;;5.82;61.12
35291;BME280;21411;50.024;19.220;2023-04-03T11:19:28;99626.45;;;6.06;60.68
35291;BME280;21411;50.024;19.220;2023-04-03T11:22:27;99618.50;;;6.33;61.34
35291;BME280;21411;50.024;19.220;2023-04-03T11:27:42;99614.33;;;6.62;61.29
35291;BME280;21411;50.024;19.220;2023-04-03T11:30:18;99623.65;;;6.63;60.23
35291;BME280;21411;50.024;19.220;2023-04-03T11:33:09;99618.23;;;6.49;60.38
35291;BME280;21411;50.024;19.220;2023-04-03T11:35:44;99614.30;;;6.71;60.56
35291;BME280;21411;50.024;19.220;2023-04-03T11:38:21;99613.95;;;6.84;58.24
35291;BME280;21411;50.024;19.220;2023-04-03T11:40:50;99616.91;;;6.81;58.55
35291;BME280;21411;50.024;19.220;2023-04-03T11:43:28;99620.51;;;6.75;58.45
35291;BME280;21411;50.024;19.220;2023-04-03T11:45:58;99616.52;;;6.69;58.27
35291;BME280;21411;50.024;19.220;2023-04-03T11:50:55;99604.64;;;6.53;59.80
35291;BME280;21411;50.024;19.220;2023-04-03T11:56:06;99621.35;;;6.23;60.03
35291;BME280;21411;50.024;19.220;2023-04-03T12:04:20;99610.48;;;5.88;62.07
35291;BME280;21411;50.024;19.220;2023-04-03T12:11:56;99607.55;;;5.73;61.68
35291;BME280;21411;50.024;19.220;2023-04-03T12:14:24;99607.48;;;5.84;60.28
35291;BME280;21411;50.024;19.220;2023-04-03T12:16:53;99603.89;;;6.14;60.25
35291;BME280;21411;50.024;19.220;2023-04-03T12:19:30;99596.75;;;6.25;59.01
35291;BME280;21411;50.024;19.220;2023-04-03T12:24:29;99600.95;;;5.94;58.45
35291;BME280;21411;50.024;19.220;2023-04-03T12:32:11;99604.53;;;5.59;59.47
35291;BME280;21411;50.024;19.220;2023-04-03T12:46:12;99586.05;;;6.71;57.78
35291;BME280;21411;50.024;19.220;2023-04-03T12:48:48;99586.18;;;6.90;57.04
35291;BME280;21411;50.024;19.220;2023-04-03T12:51:20;99585.91;;;6.91;56.49
35291;BME280;21411;50.024;19.220;2023-04-03T12:53:49;99583.70;;;6.89;57.41
35291;BME280;21411;50.024;19.220;2023-04-03T12:56:21;99584.55;;;6.81;57.04
35291;BME280;21411;50.024;19.220;2023-04-03T12:58:50;99584.21;;;6.73;57.28
35291;BME280;21411;50.024;19.220;2023-04-03T13:01:21;99584.88;;;6.74;57.37
35291;BME280;21411;50.024;19.220;2023-04-03T13:03:52;99585.15;;;6.72;56.28
35291;BME280;21411;50.024;19.220;2023-04-03T13:06:27;99584.69;;;6.61;55.49
35291;BME280;21411;50.024;19.220;2023-04-03T13:08:56;99580.05;;;6.45;54.91
35291;BME280;21411;50.024;19.220;2023-04-03T13:11:24;99579.20;;;6.27;55.21
35291;BME280;21411;50.024;19.220;2023-04-03T13:14:00;99583.45;;;6.18;55.82
35291;BME280;21411;50.024;19.220;2023-04-03T13:16:28;99587.12;;;6.14;56.39
35291;BME280;21411;50.024;19.220;2023-04-03T13:18:55;99586.19;;;6.16;56.81
35291;BME280;21411;50.024;19.220;2023-04-03T13:21:28;99584.40;;;6.16;56.80
35291;BME280;21411;50.024;19.220;2023-04-03T13:23:57;99585.06;;;6.04;56.41
35291;BME280;21411;50.024;19.220;2023-04-03T13:26:28;99587.85;;;5.76;54.14
35291;BME280;21411;50.024;19.220;2023-04-03T13:29:16;99593.98;;;5.49;54.32
35291;BME280;21411;50.024;19.220;2023-04-03T13:31:45;99598.35;;;5.25;53.55
35291;BME280;21411;50.024;19.220;2023-04-03T13:34:13;99604.09;;;5.02;51.61
35291;BME280;21411;50.024;19.220;2023-04-03T13:36:55;99600.00;;;4.88;52.48
35291;BME280;21411;50.024;19.220;2023-04-03T13:39:25;99600.76;;;4.87;53.63
35291;BME280;21411;50.024;19.220;2023-04-03T13:42:02;99603.29;;;4.90;53.90
35291;BME280;21411;50.024;19.220;2023-04-03T13:44:40;99600.61;;;4.96;53.82
35291;BME280;21411;50.024;19.220;2023-04-03T13:49:43;99600.23;;;4.91;52.70
35291;BME280;21411;50.024;19.220;2023-04-03T13:57:50;99591.25;;;4.76;53.09
35291;BME280;21411;50.024;19.220;2023-04-03T14:03:19;99589.77;;;4.83;53.39
35291;BME280;21411;50.024;19.220;2023-04-03T14:05:46;99589.31;;;4.91;53.83
35291;BME280;21411;50.024;19.220;2023-04-03T14:08:13;99586.16;;;5.01;54.06
35291;BME280;21411;50.024;19.220;2023-04-03T14:10:40;99586.16;;;5.06;53.42
35291;BME280;21411;50.024;19.220;2023-04-03T14:13:11;99585.73;;;5.08;54.00
35291;BME280;21411;50.024;19.220;2023-04-03T14:15:38;99586.59;;;5.14;54.54
35291;BME280;21411;50.024;19.220;2023-04-03T14:18:04;99586.08;;;5.19;53.36
35291;BME280;21411;50.024;19.220;2023-04-03T14:20:31;99589.15;;;5.21;54.28
35291;BME280;21411;50.024;19.220;2023-04-03T14:22:57;99591.98;;;5.26;54.66
35291;BME280;21411;50.024;19.220;2023-04-03T14:25:24;99591.78;;;5.26;54.80
35291;BME280;21411;50.024;19.220;2023-04-03T14:27:52;99599.17;;;5.26;54.78
35291;BME280;21411;50.024;19.220;2023-04-03T14:30:24;99598.77;;;5.18;53.26
35291;BME280;21411;50.024;19.220;2023-04-03T14:32:51;99600.00;;;5.13;53.63
35291;BME280;21411;50.024;19.220;2023-04-03T14:35:18;99594.64;;;5.15;53.51